createdAt,value
2023-05-02T00:00:46.638Z,10.80
2023-05-02T00:04:49.662Z,9.90
2023-05-02T00:08:53.086Z,9.90
2023-05-02T00:12:54.750Z,9.93
2023-05-02T00:16:56.486Z,10.88
2023-05-02T00:20:58.255Z,12.85
2023-05-02T00:24:59.955Z,11.43
2023-05-02T00:29:01.669Z,10.15
2023-05-02T00:33:03.714Z,12.98
2023-05-02T00:37:05.479Z,13.33
2023-05-02T00:41:07.573Z,15.43
2023-05-02T00:45:09.617Z,15.07
2023-05-02T00:49:11.481Z,16.33
2023-05-02T00:53:13.138Z,15.25
2023-05-02T00:57:14.836Z,16.45
2023-05-02T01:01:53.852Z,16.45
2023-05-02T01:06:04.582Z,17.58
2023-05-02T01:10:09.459Z,18.48
2023-05-02T01:14:12.079Z,18.98
2023-05-02T01:18:18.663Z,17.88
2023-05-02T01:22:22.614Z,20.17
2023-05-02T01:26:41.234Z,22.35
2023-05-02T01:30:44.755Z,18.00
2023-05-02T01:34:47.452Z,20.70
2023-05-02T01:38:50.834Z,18.65
2023-05-02T01:42:53.811Z,16.52
2023-05-02T01:50:58.864Z,15.30
2023-05-02T01:55:01.314Z,19.05
2023-05-02T01:59:06.549Z,17.85
2023-05-02T02:03:10.618Z,18.58
2023-05-02T02:07:14.152Z,23.70
2023-05-02T02:11:22.231Z,19.58
2023-05-02T02:15:28.897Z,21.02
2023-05-02T02:19:32.186Z,18.23
2023-05-02T02:23:36.878Z,18.15
2023-05-02T02:27:38.764Z,19.40
2023-05-02T02:31:40.643Z,18.65
2023-05-02T02:35:48.524Z,19.48
2023-05-02T02:40:01.143Z,17.98
2023-05-02T02:44:24.371Z,21.15
2023-05-02T02:48:35.013Z,18.38
2023-05-02T02:52:36.659Z,18.45
2023-05-02T02:56:42.009Z,20.33
2023-05-02T03:00:45.050Z,20.33
2023-05-02T03:04:47.685Z,21.58
2023-05-02T03:08:49.355Z,23.10
2023-05-02T03:12:56.052Z,23.73
2023-05-02T03:16:59.125Z,24.63
2023-05-02T03:21:02.215Z,25.00
2023-05-02T03:25:04.091Z,21.77
2023-05-02T03:29:06.007Z,26.08
2023-05-02T03:33:13.193Z,24.10
2023-05-02T03:37:18.139Z,27.65
2023-05-02T03:41:21.112Z,21.67
2023-05-02T03:45:28.910Z,25.05
2023-05-02T03:49:30.744Z,23.58
2023-05-02T03:53:33.049Z,23.20
2023-05-02T03:57:34.863Z,22.58
2023-05-02T04:01:37.738Z,24.42
2023-05-02T04:05:40.687Z,23.45
2023-05-02T04:09:43.621Z,24.42
2023-05-02T04:13:46.834Z,24.20
2023-05-02T04:17:48.650Z,23.52
2023-05-02T04:21:51.529Z,22.30
2023-05-02T04:25:56.817Z,26.60
2023-05-02T04:30:10.794Z,28.30
2023-05-02T04:34:13.137Z,23.60
2023-05-02T04:38:18.913Z,25.33
2023-05-02T04:42:24.082Z,27.80
2023-05-02T04:46:38.219Z,25.30
2023-05-02T04:50:40.141Z,31.77
2023-05-02T04:54:42.236Z,27.13
2023-05-02T05:02:50.682Z,32.90
2023-05-02T05:06:52.885Z,27.77
2023-05-02T05:10:57.654Z,32.95
2023-05-02T05:15:00.295Z,28.27
2023-05-02T05:19:04.478Z,30.65
2023-05-02T05:27:10.265Z,33.42
2023-05-02T05:31:16.059Z,35.45
2023-05-02T05:35:21.942Z,36.72
2023-05-02T05:39:25.182Z,39.63
2023-05-02T05:43:29.445Z,40.55
2023-05-02T05:47:31.625Z,42.42
2023-05-02T05:51:33.620Z,39.60
2023-05-02T05:55:37.513Z,38.10
2023-05-02T05:59:40.360Z,40.45
2023-05-02T06:03:43.280Z,43.60
2023-05-02T06:07:45.209Z,44.55
2023-05-02T06:11:50.197Z,47.92
2023-05-02T06:15:52.803Z,43.15
2023-05-02T06:19:54.630Z,41.92
2023-05-02T06:23:56.388Z,43.47
2023-05-02T06:27:58.119Z,43.95
2023-05-02T06:31:59.860Z,45.30
2023-05-02T06:36:02.434Z,39.03
2023-05-02T06:44:07.316Z,42.97
2023-05-02T06:48:09.503Z,44.75
2023-05-02T06:52:11.333Z,49.97
2023-05-02T06:56:13.033Z,47.33
2023-05-02T07:00:16.836Z,49.95
2023-05-02T07:04:22.070Z,49.25
2023-05-02T07:08:24.298Z,55.87
2023-05-02T07:12:26.544Z,55.53
2023-05-02T07:16:31.627Z,54.28
2023-05-02T07:20:33.571Z,48.28
2023-05-02T07:24:35.418Z,49.40
2023-05-02T07:28:37.146Z,51.43
2023-05-02T07:32:40.000Z,47.22
2023-05-02T07:36:41.857Z,47.28
2023-05-02T07:40:43.774Z,46.38
2023-05-02T07:44:45.620Z,48.50
2023-05-02T07:48:47.348Z,40.67
2023-05-02T07:52:49.086Z,41.10
2023-05-02T07:56:50.819Z,38.90
2023-05-02T08:00:52.493Z,42.38
2023-05-02T08:04:54.305Z,40.45
2023-05-02T08:08:56.874Z,45.70
2023-05-02T08:12:58.587Z,38.40
2023-05-02T08:17:01.059Z,39.47
2023-05-02T08:21:02.736Z,37.70
2023-05-02T08:25:04.748Z,34.03
2023-05-02T08:29:06.654Z,35.70
2023-05-02T08:33:08.396Z,28.83
2023-05-02T08:37:11.009Z,27.95
2023-05-02T08:41:17.972Z,29.40
2023-05-02T08:45:20.130Z,28.27
2023-05-02T08:49:22.984Z,29.50
2023-05-02T08:57:29.628Z,23.58
2023-05-02T09:01:33.538Z,25.25
2023-05-02T09:05:41.175Z,21.75
2023-05-02T09:09:42.989Z,27.38
2023-05-02T09:13:53.679Z,25.23
2023-05-02T09:17:55.745Z,26.25
2023-05-02T09:22:01.647Z,23.87
2023-05-02T09:26:15.069Z,27.55
2023-05-02T09:30:22.401Z,24.77
2023-05-02T09:34:24.173Z,27.02
2023-05-02T09:38:26.003Z,25.92
2023-05-02T09:42:31.414Z,23.35
2023-05-02T09:46:49.936Z,24.45
2023-05-02T09:50:53.020Z,23.08
2023-05-02T09:54:56.653Z,23.13
2023-05-02T09:59:17.251Z,23.00
2023-05-02T10:03:19.926Z,22.77
2023-05-02T10:07:21.724Z,22.65
2023-05-02T10:11:25.335Z,22.65
2023-05-02T10:15:29.505Z,24.20
2023-05-02T10:19:39.369Z,21.45
2023-05-02T10:23:45.604Z,25.05
2023-05-02T10:27:48.545Z,24.70
2023-05-02T10:31:50.887Z,24.63
2023-05-02T10:35:52.632Z,21.88
2023-05-02T10:39:56.620Z,22.60
2023-05-02T10:44:00.573Z,19.80
2023-05-02T10:48:19.147Z,23.33
2023-05-02T10:52:29.771Z,19.92
2023-05-02T10:56:31.501Z,20.55
2023-05-02T11:00:34.418Z,17.98
2023-05-02T11:05:05.944Z,16.40
2023-05-02T11:09:14.784Z,19.33
2023-05-02T11:13:16.631Z,19.73
2023-05-02T11:17:18.668Z,18.37
2023-05-02T11:21:31.363Z,17.33
2023-05-02T11:25:38.117Z,15.93
2023-05-02T11:29:59.618Z,13.98
2023-05-02T11:34:02.588Z,13.98
2023-05-02T11:38:08.799Z,12.70
2023-05-02T11:42:10.667Z,14.07
2023-05-02T11:46:12.778Z,13.93
2023-05-02T11:50:15.663Z,12.75
2023-05-02T11:54:21.591Z,12.25
2023-05-02T11:58:35.067Z,10.88
2023-05-02T12:02:37.801Z,10.70
2023-05-02T12:06:54.909Z,10.73
2023-05-02T12:10:59.588Z,9.90
2023-05-02T12:15:08.812Z,12.30
2023-05-02T12:19:10.622Z,8.20
2023-05-02T12:23:13.110Z,9.87
2023-05-02T12:31:17.289Z,9.10
2023-05-02T12:35:23.323Z,11.90
2023-05-02T12:39:41.947Z,5.30
2023-05-02T12:43:47.080Z,5.65
2023-05-02T12:47:48.784Z,6.00
2023-05-02T12:51:55.895Z,7.15
2023-05-02T12:56:07.442Z,6.93
2023-05-02T13:00:10.225Z,7.60
2023-05-02T13:04:11.946Z,8.02
2023-05-02T13:08:13.750Z,4.03
2023-05-02T13:12:15.417Z,4.97
2023-05-02T13:16:17.342Z,6.83
2023-05-02T13:20:19.325Z,9.00
2023-05-02T13:24:21.326Z,14.67
2023-05-02T13:28:23.209Z,11.57
2023-05-02T13:32:29.244Z,11.98
2023-05-02T13:36:31.084Z,9.10
2023-05-02T13:40:32.896Z,9.80
2023-05-02T13:44:34.530Z,12.10
2023-05-02T13:48:37.580Z,8.30
2023-05-02T13:52:39.408Z,5.47
2023-05-02T13:56:41.636Z,5.00
2023-05-02T14:00:43.424Z,6.28
2023-05-02T14:04:46.622Z,6.17
2023-05-02T14:08:48.276Z,7.45
2023-05-02T14:12:50.090Z,6.67
2023-05-02T14:16:51.909Z,4.93
2023-05-02T14:20:53.706Z,5.07
2023-05-02T14:24:55.599Z,6.03
2023-05-02T14:28:57.412Z,5.53
2023-05-02T14:32:59.164Z,6.60
2023-05-02T14:37:00.957Z,5.63
2023-05-02T14:41:04.767Z,8.37
2023-05-02T14:45:07.810Z,6.75
2023-05-02T14:49:11.930Z,7.00
2023-05-02T14:53:15.116Z,6.50
2023-05-02T15:01:49.598Z,9.15
2023-05-02T15:05:54.707Z,8.15
2023-05-02T15:09:58.609Z,7.75
2023-05-02T15:14:06.183Z,6.43
2023-05-02T15:18:08.143Z,7.10
2023-05-02T15:22:12.338Z,7.93
2023-05-02T15:30:46.949Z,7.70
2023-05-02T15:34:51.654Z,7.47
2023-05-02T15:38:59.949Z,7.85
2023-05-02T15:43:10.976Z,9.10
2023-05-02T15:47:13.968Z,8.23
2023-05-02T15:51:16.564Z,8.82
2023-05-02T15:59:45.623Z,10.05
2023-05-02T16:03:52.160Z,7.70
2023-05-02T16:07:56.475Z,10.10
2023-05-02T16:12:06.361Z,9.55
2023-05-02T16:16:10.268Z,8.60
2023-05-02T16:20:16.998Z,7.55
2023-05-02T16:28:41.625Z,6.63
2023-05-02T16:32:45.359Z,6.50
2023-05-02T16:36:51.830Z,6.45
2023-05-02T16:40:54.133Z,5.18
2023-05-02T16:44:57.896Z,7.47
2023-05-02T16:49:08.423Z,7.55
2023-05-02T16:53:10.953Z,5.63
2023-05-02T16:57:20.028Z,6.68
2023-05-02T17:01:24.164Z,5.90
2023-05-02T17:05:28.666Z,8.88
2023-05-02T17:09:31.436Z,6.22
2023-05-02T17:17:38.081Z,7.13
2023-05-02T17:21:43.777Z,4.78
2023-05-02T17:25:45.771Z,5.50
2023-05-02T17:29:49.124Z,5.72
2023-05-02T17:33:58.452Z,8.07
2023-05-02T17:38:06.505Z,8.05
2023-05-02T17:52:51.965Z,4.93
2023-05-02T17:56:58.334Z,8.20
2023-05-02T18:01:11.500Z,6.03
2023-05-02T18:05:15.499Z,6.22
2023-05-02T18:09:21.995Z,5.78
2023-05-02T18:13:26.222Z,5.85
2023-05-02T18:17:28.235Z,7.78
2023-05-02T18:21:31.930Z,5.17
2023-05-02T18:25:35.953Z,3.70
2023-05-02T18:33:41.558Z,6.03
2023-05-02T18:37:43.367Z,4.75
2023-05-02T18:41:45.141Z,4.70
2023-05-02T18:45:48.730Z,4.45
2023-05-02T18:49:50.699Z,5.32
2023-05-02T18:53:52.609Z,7.17
2023-05-02T18:57:54.384Z,6.68
2023-05-02T19:01:56.729Z,9.43
2023-05-02T19:05:58.486Z,8.13
2023-05-02T19:10:00.363Z,5.80
2023-05-02T19:14:03.881Z,5.55
2023-05-02T19:18:05.619Z,5.10
2023-05-02T19:22:07.730Z,5.78
2023-05-02T19:26:16.571Z,6.87
2023-05-02T19:30:18.857Z,7.90
2023-05-02T19:34:20.987Z,9.27
2023-05-02T19:38:24.174Z,5.88
2023-05-02T19:42:25.937Z,8.30
2023-05-02T19:46:27.837Z,5.07
2023-05-02T19:50:30.957Z,7.00
2023-05-02T19:54:33.576Z,5.47
2023-05-02T19:58:35.404Z,8.75
2023-05-02T20:02:37.404Z,6.75
2023-05-02T20:06:39.292Z,7.07
2023-05-02T20:10:41.252Z,5.03
2023-05-02T20:14:47.467Z,5.10
2023-05-02T20:18:49.337Z,7.65
2023-05-02T20:22:51.911Z,7.68
2023-05-02T20:26:53.725Z,10.32
2023-05-02T20:30:55.716Z,8.15
2023-05-02T20:34:57.849Z,9.03
2023-05-02T20:38:59.650Z,11.03
2023-05-02T20:43:02.420Z,9.52
2023-05-02T20:51:07.617Z,5.90
2023-05-02T20:55:09.804Z,11.45
2023-05-02T20:59:12.102Z,9.90
2023-05-02T21:03:13.747Z,8.07
2023-05-02T21:07:18.772Z,6.82
2023-05-02T21:11:20.505Z,8.35
2023-05-02T21:15:22.488Z,10.63
2023-05-02T21:19:24.119Z,8.77
2023-05-02T21:23:26.412Z,9.63
2023-05-02T21:27:28.239Z,9.95
2023-05-02T21:31:32.299Z,9.80
2023-05-02T21:35:34.311Z,8.93
2023-05-02T21:39:36.140Z,8.35
2023-05-02T21:43:41.605Z,10.02
2023-05-02T21:47:44.619Z,10.05
2023-05-02T21:51:46.472Z,7.93
2023-05-02T21:55:48.273Z,10.10
2023-05-02T21:59:50.142Z,7.45
2023-05-02T22:03:51.947Z,8.30
2023-05-02T22:07:53.665Z,7.45
2023-05-02T22:11:55.617Z,7.95
2023-05-02T22:15:57.247Z,9.50
2023-05-02T22:19:58.886Z,9.57
2023-05-02T22:24:00.600Z,7.53
2023-05-02T22:28:07.161Z,14.23
2023-05-02T22:32:08.949Z,12.07
2023-05-02T22:36:10.767Z,8.95
2023-05-02T22:40:12.837Z,9.48
2023-05-02T22:44:14.669Z,8.63
2023-05-02T22:48:16.326Z,6.75
2023-05-02T22:52:18.549Z,6.88
2023-05-02T22:56:20.876Z,10.32
2023-05-02T23:00:23.697Z,10.38
2023-05-02T23:08:27.121Z,11.68
2023-05-02T23:12:28.875Z,9.35
2023-05-02T23:16:31.208Z,10.93
2023-05-02T23:20:35.203Z,13.02
2023-05-02T23:24:36.856Z,11.52
2023-05-02T23:28:39.602Z,10.52
2023-05-02T23:32:43.216Z,11.15
2023-05-02T23:36:45.337Z,11.13
2023-05-02T23:40:47.037Z,11.23
2023-05-02T23:44:51.077Z,13.75
2023-05-02T23:48:53.146Z,15.23
2023-05-02T23:52:54.779Z,12.37
2023-05-02T23:56:57.011Z,10.02
